sensor_id;sensor_type;location;lat;lon;timestamp;pressure;altitude;pressure_sealevel;temperature;humidity
64521;BME280;50896;46.714;17.322;2022-08-25T00:01:56;100499.28;;;20.19;100.00
64521;BME280;50896;46.714;17.322;2022-08-25T00:04:23;100498.09;;;20.14;100.00
64521;BME280;50896;46.714;17.322;2022-08-25T00:06:51;100498.31;;;20.13;100.00
64521;BME280;50896;46.714;17.322;2022-08-25T00:09:29;100496.06;;;20.10;100.00
64521;BME280;50896;46.714;17.322;2022-08-25T00:11:57;100494.06;;;20.05;100.00
64521;BME280;50896;46.714;17.322;2022-08-25T00:14:33;100492.38;;;20.04;100.00
64521;BME280;50896;46.714;17.322;2022-08-25T00:17:01;100492.84;;;20.01;100.00
64521;BME280;50896;46.714;17.322;2022-08-25T00:19:31;100492.44;;;19.97;100.00
64521;BME280;50896;46.714;17.322;2022-08-25T00:21:59;100488.72;;;19.98;100.00
64521;BME280;50896;46.714;17.322;2022-08-25T00:24:26;100480.56;;;20.05;100.00
64521;BME280;50896;46.714;17.322;2022-08-25T00:26:55;100475.59;;;20.02;100.00
64521;BME280;50896;46.714;17.322;2022-08-25T00:29:23;100476.72;;;20.13;100.00
64521;BME280;50896;46.714;17.322;2022-08-25T00:31:52;100472.00;;;20.08;100.00
64521;BME280;50896;46.714;17.322;2022-08-25T00:34:23;100466.50;;;19.96;100.00
64521;BME280;50896;46.714;17.322;2022-08-25T00:36:50;100480.41;;;20.00;100.00
64521;BME280;50896;46.714;17.322;2022-08-25T00:39:19;100474.47;;;19.91;100.00
64521;BME280;50896;46.714;17.322;2022-08-25T00:41:49;100474.75;;;19.83;100.00
64521;BME280;50896;46.714;17.322;2022-08-25T00:44:16;100478.03;;;19.85;100.00
64521;BME280;50896;46.714;17.322;2022-08-25T00:46:48;100482.00;;;19.83;100.00
64521;BME280;50896;46.714;17.322;2022-08-25T00:49:23;100486.75;;;19.87;100.00
64521;BME280;50896;46.714;17.322;2022-08-25T00:52:00;100478.72;;;19.80;100.00
64521;BME280;50896;46.714;17.322;2022-08-25T00:54:33;100481.03;;;19.70;100.00
64521;BME280;50896;46.714;17.322;2022-08-25T00:57:02;100476.25;;;19.72;100.00
64521;BME280;50896;46.714;17.322;2022-08-25T00:59:29;100479.78;;;19.73;100.00
64521;BME280;50896;46.714;17.322;2022-08-25T01:01:57;100476.38;;;19.84;100.00
64521;BME280;50896;46.714;17.322;2022-08-25T01:04:25;100468.91;;;19.86;100.00
64521;BME280;50896;46.714;17.322;2022-08-25T01:06:53;100477.69;;;19.82;100.00
64521;BME280;50896;46.714;17.322;2022-08-25T01:09:21;100468.50;;;19.83;100.00
64521;BME280;50896;46.714;17.322;2022-08-25T01:11:48;100469.59;;;19.82;100.00
64521;BME280;50896;46.714;17.322;2022-08-25T01:14:18;100475.38;;;19.78;100.00
64521;BME280;50896;46.714;17.322;2022-08-25T01:16:46;100476.25;;;19.72;100.00
64521;BME280;50896;46.714;17.322;2022-08-25T01:19:20;100471.38;;;19.62;100.00
64521;BME280;50896;46.714;17.322;2022-08-25T01:21:49;100477.75;;;19.68;100.00
64521;BME280;50896;46.714;17.322;2022-08-25T01:24:54;100469.94;;;19.60;100.00
64521;BME280;50896;46.714;17.322;2022-08-25T01:27:23;100463.81;;;19.46;100.00
64521;BME280;50896;46.714;17.322;2022-08-25T01:29:49;100468.41;;;19.45;100.00
64521;BME280;50896;46.714;17.322;2022-08-25T01:32:16;100471.91;;;19.46;100.00
64521;BME280;50896;46.714;17.322;2022-08-25T01:34:44;100473.94;;;19.51;99.48
64521;BME280;50896;46.714;17.322;2022-08-25T01:37:13;100472.59;;;19.41;99.70
64521;BME280;50896;46.714;17.322;2022-08-25T01:39:41;100470.34;;;19.38;99.51
64521;BME280;50896;46.714;17.322;2022-08-25T01:42:12;100478.28;;;19.26;100.00
64521;BME280;50896;46.714;17.322;2022-08-25T01:44:44;100473.16;;;19.18;100.00
64521;BME280;50896;46.714;17.322;2022-08-25T01:47:12;100473.13;;;19.25;100.00
64521;BME280;50896;46.714;17.322;2022-08-25T01:49:39;100471.22;;;19.25;100.00
64521;BME280;50896;46.714;17.322;2022-08-25T01:52:27;100474.78;;;19.26;100.00
64521;BME280;50896;46.714;17.322;2022-08-25T01:54:54;100467.06;;;19.29;100.00
64521;BME280;50896;46.714;17.322;2022-08-25T01:57:22;100466.50;;;19.21;100.00
64521;BME280;50896;46.714;17.322;2022-08-25T01:59:49;100466.28;;;19.22;100.00
64521;BME280;50896;46.714;17.322;2022-08-25T02:02:15;100464.63;;;19.21;100.00
64521;BME280;50896;46.714;17.322;2022-08-25T02:04:44;100471.13;;;19.13;99.90
64521;BME280;50896;46.714;17.322;2022-08-25T02:07:11;100461.94;;;19.21;100.00
64521;BME280;50896;46.714;17.322;2022-08-25T02:09:38;100467.03;;;19.04;100.00
64521;BME280;50896;46.714;17.322;2022-08-25T02:12:05;100460.41;;;19.00;100.00
64521;BME280;50896;46.714;17.322;2022-08-25T02:14:35;100470.59;;;18.98;100.00
64521;BME280;50896;46.714;17.322;2022-08-25T02:17:04;100472.63;;;19.03;100.00
64521;BME280;50896;46.714;17.322;2022-08-25T02:19:32;100478.66;;;19.05;100.00
64521;BME280;50896;46.714;17.322;2022-08-25T02:21:59;100477.66;;;18.99;100.00
64521;BME280;50896;46.714;17.322;2022-08-25T02:24:26;100479.13;;;18.95;100.00
64521;BME280;50896;46.714;17.322;2022-08-25T02:26:53;100473.28;;;18.98;100.00
64521;BME280;50896;46.714;17.322;2022-08-25T02:29:20;100475.81;;;18.93;100.00
64521;BME280;50896;46.714;17.322;2022-08-25T02:31:46;100475.63;;;18.88;100.00
64521;BME280;50896;46.714;17.322;2022-08-25T02:34:14;100465.44;;;18.97;100.00
64521;BME280;50896;46.714;17.322;2022-08-25T02:36:41;100468.94;;;18.97;100.00
64521;BME280;50896;46.714;17.322;2022-08-25T02:39:10;100470.59;;;18.98;100.00
64521;BME280;50896;46.714;17.322;2022-08-25T02:41:37;100462.34;;;18.93;100.00
64521;BME280;50896;46.714;17.322;2022-08-25T02:44:06;100464.00;;;18.94;100.00
64521;BME280;50896;46.714;17.322;2022-08-25T02:46:34;100468.94;;;18.97;100.00
64521;BME280;50896;46.714;17.322;2022-08-25T02:49:01;100465.81;;;19.00;100.00
64521;BME280;50896;46.714;17.322;2022-08-25T02:51:27;100463.31;;;19.05;100.00
64521;BME280;50896;46.714;17.322;2022-08-25T02:53:57;100459.72;;;19.11;100.00
64521;BME280;50896;46.714;17.322;2022-08-25T02:56:24;100460.94;;;19.16;100.00
64521;BME280;50896;46.714;17.322;2022-08-25T02:58:51;100460.13;;;19.15;100.00
64521;BME280;50896;46.714;17.322;2022-08-25T03:01:19;100458.03;;;19.17;100.00
64521;BME280;50896;46.714;17.322;2022-08-25T03:03:48;100462.78;;;19.22;100.00
64521;BME280;50896;46.714;17.322;2022-08-25T03:06:17;100455.50;;;19.22;100.00
64521;BME280;50896;46.714;17.322;2022-08-25T03:08:44;100454.84;;;19.27;100.00
64521;BME280;50896;46.714;17.322;2022-08-25T03:11:12;100453.38;;;19.31;100.00
64521;BME280;50896;46.714;17.322;2022-08-25T03:13:39;100454.34;;;19.37;100.00
64521;BME280;50896;46.714;17.322;2022-08-25T03:16:06;100453.50;;;19.43;100.00
64521;BME280;50896;46.714;17.322;2022-08-25T03:18:38;100452.00;;;19.47;100.00
64521;BME280;50896;46.714;17.322;2022-08-25T03:21:06;100454.66;;;19.54;100.00
64521;BME280;50896;46.714;17.322;2022-08-25T03:23:33;100451.50;;;19.57;100.00
64521;BME280;50896;46.714;17.322;2022-08-25T03:26:00;100448.81;;;19.57;100.00
64521;BME280;50896;46.714;17.322;2022-08-25T03:28:45;100447.16;;;19.56;100.00
64521;BME280;50896;46.714;17.322;2022-08-25T03:31:12;100437.56;;;19.60;100.00
64521;BME280;50896;46.714;17.322;2022-08-25T03:33:39;100451.06;;;19.60;100.00
64521;BME280;50896;46.714;17.322;2022-08-25T03:36:06;100447.78;;;19.58;100.00
64521;BME280;50896;46.714;17.322;2022-08-25T03:38:34;100453.75;;;19.60;100.00
64521;BME280;50896;46.714;17.322;2022-08-25T03:41:13;100449.00;;;19.62;100.00
64521;BME280;50896;46.714;17.322;2022-08-25T03:43:41;100454.44;;;19.55;100.00
64521;BME280;50896;46.714;17.322;2022-08-25T03:46:08;100451.72;;;19.55;100.00
64521;BME280;50896;46.714;17.322;2022-08-25T03:48:35;100451.16;;;19.46;100.00
64521;BME280;50896;46.714;17.322;2022-08-25T03:51:02;100447.13;;;19.37;100.00
64521;BME280;50896;46.714;17.322;2022-08-25T03:53:28;100446.06;;;19.38;100.00
64521;BME280;50896;46.714;17.322;2022-08-25T03:55:55;100445.19;;;19.44;100.00
64521;BME280;50896;46.714;17.322;2022-08-25T03:58:23;100458.66;;;19.44;100.00
64521;BME280;50896;46.714;17.322;2022-08-25T04:00:49;100457.94;;;19.30;100.00
64521;BME280;50896;46.714;17.322;2022-08-25T04:03:17;100463.56;;;19.29;100.00
64521;BME280;50896;46.714;17.322;2022-08-25T04:05:44;100467.63;;;19.38;100.00
64521;BME280;50896;46.714;17.322;2022-08-25T04:08:11;100471.38;;;19.37;100.00
64521;BME280;50896;46.714;17.322;2022-08-25T04:10:39;100461.44;;;19.31;100.00
64521;BME280;50896;46.714;17.322;2022-08-25T04:13:05;100459.91;;;19.17;100.00
64521;BME280;50896;46.714;17.322;2022-08-25T04:15:32;100462.41;;;19.11;100.00
64521;BME280;50896;46.714;17.322;2022-08-25T04:17:59;100462.41;;;19.11;100.00
64521;BME280;50896;46.714;17.322;2022-08-25T04:20:26;100468.47;;;19.07;100.00
64521;BME280;50896;46.714;17.322;2022-08-25T04:22:53;100469.28;;;19.07;100.00
64521;BME280;50896;46.714;17.322;2022-08-25T04:25:20;100469.66;;;19.18;100.00
64521;BME280;50896;46.714;17.322;2022-08-25T04:27:47;100462.00;;;19.15;100.00
64521;BME280;50896;46.714;17.322;2022-08-25T04:30:14;100470.25;;;19.20;100.00
64521;BME280;50896;46.714;17.322;2022-08-25T04:32:41;100471.91;;;19.21;100.00
64521;BME280;50896;46.714;17.322;2022-08-25T04:35:08;100480.44;;;19.18;100.00
64521;BME280;50896;46.714;17.322;2022-08-25T04:37:35;100474.88;;;19.06;100.00
64521;BME280;50896;46.714;17.322;2022-08-25T04:40:02;100475.84;;;19.18;100.00
64521;BME280;50896;46.714;17.322;2022-08-25T04:42:30;100475.88;;;19.11;100.00
64521;BME280;50896;46.714;17.322;2022-08-25T04:44:57;100471.97;;;19.07;100.00
64521;BME280;50896;46.714;17.322;2022-08-25T04:47:24;100476.34;;;19.08;100.00
64521;BME280;50896;46.714;17.322;2022-08-25T04:49:53;100474.47;;;19.09;100.00
64521;BME280;50896;46.714;17.322;2022-08-25T04:52:20;100472.13;;;19.19;100.00
64521;BME280;50896;46.714;17.322;2022-08-25T04:54:47;100488.69;;;19.23;100.00
64521;BME280;50896;46.714;17.322;2022-08-25T04:57:13;100478.06;;;19.28;100.00
64521;BME280;50896;46.714;17.322;2022-08-25T04:59:40;100483.09;;;19.24;100.00
64521;BME280;50896;46.714;17.322;2022-08-25T05:02:07;100484.34;;;19.22;100.00
64521;BME280;50896;46.714;17.322;2022-08-25T05:04:34;100482.00;;;19.25;100.00
64521;BME280;50896;46.714;17.322;2022-08-25T05:07:02;100484.91;;;19.30;100.00
64521;BME280;50896;46.714;17.322;2022-08-25T05:09:30;100483.19;;;19.36;100.00
64521;BME280;50896;46.714;17.322;2022-08-25T05:11:59;100485.84;;;19.43;100.00
64521;BME280;50896;46.714;17.322;2022-08-25T05:14:27;100487.06;;;19.47;100.00
64521;BME280;50896;46.714;17.322;2022-08-25T05:16:55;100491.06;;;19.63;100.00
64521;BME280;50896;46.714;17.322;2022-08-25T05:19:22;100487.09;;;19.66;100.00
64521;BME280;50896;46.714;17.322;2022-08-25T05:21:50;100484.34;;;19.72;100.00
64521;BME280;50896;46.714;17.322;2022-08-25T05:24:17;100482.06;;;19.76;100.00
64521;BME280;50896;46.714;17.322;2022-08-25T05:26:43;100483.25;;;19.80;100.00
64521;BME280;50896;46.714;17.322;2022-08-25T05:29:10;100480.38;;;19.82;100.00
64521;BME280;50896;46.714;17.322;2022-08-25T05:31:37;100478.03;;;19.85;100.00
64521;BME280;50896;46.714;17.322;2022-08-25T05:34:09;100475.13;;;19.87;100.00
64521;BME280;50896;46.714;17.322;2022-08-25T05:36:39;100479.03;;;19.91;100.00
64521;BME280;50896;46.714;17.322;2022-08-25T05:39:12;100491.47;;;19.92;100.00
64521;BME280;50896;46.714;17.322;2022-08-25T05:41:39;100497.91;;;19.91;100.00
64521;BME280;50896;46.714;17.322;2022-08-25T05:44:06;100495.22;;;19.91;100.00
64521;BME280;50896;46.714;17.322;2022-08-25T05:46:33;100499.13;;;19.95;100.00
64521;BME280;50896;46.714;17.322;2022-08-25T05:49:00;100497.03;;;19.97;100.00
64521;BME280;50896;46.714;17.322;2022-08-25T05:51:27;100495.91;;;20.05;100.00
64521;BME280;50896;46.714;17.322;2022-08-25T05:53:54;100491.72;;;20.09;100.00
64521;BME280;50896;46.714;17.322;2022-08-25T05:56:21;100492.84;;;20.20;100.00
64521;BME280;50896;46.714;17.322;2022-08-25T05:58:48;100494.56;;;20.32;100.00
64521;BME280;50896;46.714;17.322;2022-08-25T06:01:33;100491.03;;;20.51;100.00
64521;BME280;50896;46.714;17.322;2022-08-25T06:04:18;100494.94;;;20.55;100.00
64521;BME280;50896;46.714;17.322;2022-08-25T06:06:48;100490.06;;;20.63;100.00
64521;BME280;50896;46.714;17.322;2022-08-25T06:09:19;100493.09;;;20.74;100.00
64521;BME280;50896;46.714;17.322;2022-08-25T06:11:46;100488.44;;;20.93;100.00
64521;BME280;50896;46.714;17.322;2022-08-25T06:14:19;100500.75;;;21.07;100.00
64521;BME280;50896;46.714;17.322;2022-08-25T06:16:46;100500.63;;;21.14;100.00
64521;BME280;50896;46.714;17.322;2022-08-25T06:19:16;100500.84;;;21.12;100.00
64521;BME280;50896;46.714;17.322;2022-08-25T06:21:43;100501.84;;;21.30;100.00
64521;BME280;50896;46.714;17.322;2022-08-25T06:24:09;100503.19;;;21.39;100.00
64521;BME280;50896;46.714;17.322;2022-08-25T06:26:41;100492.59;;;21.49;98.59
64521;BME280;50896;46.714;17.322;2022-08-25T06:29:09;100501.00;;;21.60;97.01
64521;BME280;50896;46.714;17.322;2022-08-25T06:31:36;100504.31;;;21.62;98.80
64521;BME280;50896;46.714;17.322;2022-08-25T06:34:03;100501.84;;;21.72;96.52
64521;BME280;50896;46.714;17.322;2022-08-25T06:36:30;100502.66;;;21.84;94.84
64521;BME280;50896;46.714;17.322;2022-08-25T06:38:56;100507.13;;;21.91;93.68
64521;BME280;50896;46.714;17.322;2022-08-25T06:41:23;100504.91;;;21.99;92.78
64521;BME280;50896;46.714;17.322;2022-08-25T06:44:02;100511.00;;;21.95;95.12
64521;BME280;50896;46.714;17.322;2022-08-25T06:46:31;100507.72;;;22.05;93.88
64521;BME280;50896;46.714;17.322;2022-08-25T06:49:04;100492.19;;;22.12;90.60
64521;BME280;50896;46.714;17.322;2022-08-25T06:51:31;100506.66;;;22.17;90.60
64521;BME280;50896;46.714;17.322;2022-08-25T06:53:59;100503.59;;;22.26;90.28
64521;BME280;50896;46.714;17.322;2022-08-25T06:56:25;100501.13;;;22.36;90.78
64521;BME280;50896;46.714;17.322;2022-08-25T06:58:52;100494.97;;;22.41;89.47
64521;BME280;50896;46.714;17.322;2022-08-25T07:01:22;100495.22;;;22.51;88.67
64521;BME280;50896;46.714;17.322;2022-08-25T07:03:56;100498.50;;;22.53;88.49
64521;BME280;50896;46.714;17.322;2022-08-25T07:06:26;100494.25;;;22.57;88.67
64521;BME280;50896;46.714;17.322;2022-08-25T07:08:53;100500.00;;;22.61;88.11
64521;BME280;50896;46.714;17.322;2022-08-25T07:11:20;100493.75;;;22.60;87.80
64521;BME280;50896;46.714;17.322;2022-08-25T07:13:48;100507.66;;;22.64;87.06
64521;BME280;50896;46.714;17.322;2022-08-25T07:16:18;100504.94;;;22.64;87.74
64521;BME280;50896;46.714;17.322;2022-08-25T07:18:46;100509.69;;;22.57;89.12
64521;BME280;50896;46.714;17.322;2022-08-25T07:21:13;100514.56;;;22.72;88.07
64521;BME280;50896;46.714;17.322;2022-08-25T07:23:41;100509.13;;;22.83;86.88
64521;BME280;50896;46.714;17.322;2022-08-25T07:26:11;100512.00;;;22.94;87.89
64521;BME280;50896;46.714;17.322;2022-08-25T07:28:58;100513.84;;;23.05;85.86
64521;BME280;50896;46.714;17.322;2022-08-25T07:31:26;100504.41;;;23.08;82.99
64521;BME280;50896;46.714;17.322;2022-08-25T07:33:55;100511.22;;;23.10;82.26
64521;BME280;50896;46.714;17.322;2022-08-25T07:36:42;100510.38;;;22.93;83.94
64521;BME280;50896;46.714;17.322;2022-08-25T07:39:09;100501.44;;;23.09;81.25
64521;BME280;50896;46.714;17.322;2022-08-25T07:41:38;100502.19;;;23.16;79.24
64521;BME280;50896;46.714;17.322;2022-08-25T07:44:06;100503.56;;;23.19;79.12
64521;BME280;50896;46.714;17.322;2022-08-25T07:46:33;100501.69;;;23.19;78.46
64521;BME280;50896;46.714;17.322;2022-08-25T07:49:00;100497.16;;;23.25;77.82
64521;BME280;50896;46.714;17.322;2022-08-25T07:51:27;100498.22;;;23.24;78.24
64521;BME280;50896;46.714;17.322;2022-08-25T07:53:54;100500.69;;;23.26;77.23
64521;BME280;50896;46.714;17.322;2022-08-25T07:56:22;100500.69;;;23.26;78.47
64521;BME280;50896;46.714;17.322;2022-08-25T07:58:49;100497.22;;;23.30;78.59
64521;BME280;50896;46.714;17.322;2022-08-25T08:01:19;100502.50;;;23.37;76.10
64521;BME280;50896;46.714;17.322;2022-08-25T08:03:47;100505.56;;;23.41;76.13
64521;BME280;50896;46.714;17.322;2022-08-25T08:06:19;100503.09;;;23.39;76.07
64521;BME280;50896;46.714;17.322;2022-08-25T08:08:47;100495.53;;;23.41;75.92
64521;BME280;50896;46.714;17.322;2022-08-25T08:13:46;100501.44;;;23.38;79.23
64521;BME280;50896;46.714;17.322;2022-08-25T08:16:17;100492.75;;;23.53;78.10
64521;BME280;50896;46.714;17.322;2022-08-25T08:18:45;100498.03;;;23.60;76.79
64521;BME280;50896;46.714;17.322;2022-08-25T08:21:25;100491.25;;;23.62;76.50
64521;BME280;50896;46.714;17.322;2022-08-25T08:23:54;100499.88;;;23.59;76.65
64521;BME280;50896;46.714;17.322;2022-08-25T08:26:25;100498.50;;;23.57;76.81
64521;BME280;50896;46.714;17.322;2022-08-25T08:29:12;100500.63;;;23.54;77.71
64521;BME280;50896;46.714;17.322;2022-08-25T08:31:39;100509.44;;;23.62;77.54
64521;BME280;50896;46.714;17.322;2022-08-25T08:34:14;100506.97;;;23.60;76.78
64521;BME280;50896;46.714;17.322;2022-08-25T08:36:40;100507.72;;;23.55;75.88
64521;BME280;50896;46.714;17.322;2022-08-25T08:39:10;100492.16;;;23.51;76.18
64521;BME280;50896;46.714;17.322;2022-08-25T08:41:58;100494.63;;;23.52;76.75
64521;BME280;50896;46.714;17.322;2022-08-25T08:50:36;100492.09;;;23.63;77.27
64521;BME280;50896;46.714;17.322;2022-08-25T08:53:15;100493.25;;;23.67;77.39
64521;BME280;50896;46.714;17.322;2022-08-25T08:55:48;100493.38;;;23.77;77.50
64521;BME280;50896;46.714;17.322;2022-08-25T08:58:39;100492.31;;;23.78;77.71
64521;BME280;50896;46.714;17.322;2022-08-25T09:01:09;100485.88;;;23.84;78.31
64521;BME280;50896;46.714;17.322;2022-08-25T09:04:08;100485.00;;;23.96;76.99
64521;BME280;50896;46.714;17.322;2022-08-25T09:06:42;100470.34;;;23.97;76.30
64521;BME280;50896;46.714;17.322;2022-08-25T09:09:32;100469.59;;;24.01;75.54
64521;BME280;50896;46.714;17.322;2022-08-25T09:17:12;100462.22;;;23.97;77.84
64521;BME280;50896;46.714;17.322;2022-08-25T09:20:26;100465.63;;;24.09;75.88
64521;BME280;50896;46.714;17.322;2022-08-25T09:28:44;100467.47;;;24.26;75.97
64521;BME280;50896;46.714;17.322;2022-08-25T09:31:33;100461.00;;;24.27;75.34
64521;BME280;50896;46.714;17.322;2022-08-25T09:34:03;100456.13;;;24.29;75.84
64521;BME280;50896;46.714;17.322;2022-08-25T09:36:30;100456.22;;;24.39;75.74
64521;BME280;50896;46.714;17.322;2022-08-25T09:39:06;100454.91;;;24.42;74.84
64521;BME280;50896;46.714;17.322;2022-08-25T09:41:51;100452.69;;;24.38;75.11
64521;BME280;50896;46.714;17.322;2022-08-25T09:44:33;100448.47;;;24.48;76.68
64521;BME280;50896;46.714;17.322;2022-08-25T09:49:46;100440.78;;;24.62;74.06
64521;BME280;50896;46.714;17.322;2022-08-25T09:54:52;100431.06;;;24.71;73.31
64521;BME280;50896;46.714;17.322;2022-08-25T09:57:47;100434.63;;;24.71;73.31
64521;BME280;50896;46.714;17.322;2022-08-25T10:03:20;100439.69;;;24.63;72.67
64521;BME280;50896;46.714;17.322;2022-08-25T10:11:36;100423.50;;;24.73;72.47
64521;BME280;50896;46.714;17.322;2022-08-25T10:16:43;100428.00;;;24.89;72.14
64521;BME280;50896;46.714;17.322;2022-08-25T10:24:28;100419.50;;;25.13;70.38
64521;BME280;50896;46.714;17.322;2022-08-25T10:27:22;100422.25;;;25.18;69.36
64521;BME280;50896;46.714;17.322;2022-08-25T10:30:15;100430.19;;;25.25;68.93
64521;BME280;50896;46.714;17.322;2022-08-25T10:35:23;100414.28;;;25.39;66.09
64521;BME280;50896;46.714;17.322;2022-08-25T10:40:25;100416.25;;;25.49;64.04
64521;BME280;50896;46.714;17.322;2022-08-25T10:45:28;100412.25;;;25.62;63.40
64521;BME280;50896;46.714;17.322;2022-08-25T10:56:37;100392.56;;;25.97;60.39
64521;BME280;50896;46.714;17.322;2022-08-25T11:04:56;100389.16;;;26.22;58.00
64521;BME280;50896;46.714;17.322;2022-08-25T11:07:39;100385.38;;;26.34;57.61
64521;BME280;50896;46.714;17.322;2022-08-25T11:10:16;100372.59;;;26.44;57.66
64521;BME280;50896;46.714;17.322;2022-08-25T11:12:49;100370.44;;;26.57;56.43
64521;BME280;50896;46.714;17.322;2022-08-25T11:15:36;100365.28;;;26.66;55.67
64521;BME280;50896;46.714;17.322;2022-08-25T11:18:27;100367.47;;;26.79;55.23
64521;BME280;50896;46.714;17.322;2022-08-25T11:21:02;100361.22;;;26.89;55.47
64521;BME280;50896;46.714;17.322;2022-08-25T11:23:45;100365.84;;;26.99;55.25
64521;BME280;50896;46.714;17.322;2022-08-25T11:26:19;100359.28;;;27.15;55.44
64521;BME280;50896;46.714;17.322;2022-08-25T11:29:08;100356.28;;;27.27;54.81
64521;BME280;50896;46.714;17.322;2022-08-25T11:31:44;100355.75;;;27.35;53.91
64521;BME280;50896;46.714;17.322;2022-08-25T11:34:18;100349.19;;;27.31;51.78
64521;BME280;50896;46.714;17.322;2022-08-25T11:36:52;100347.81;;;27.39;52.57
64521;BME280;50896;46.714;17.322;2022-08-25T11:45:41;100350.56;;;27.28;54.21
64521;BME280;50896;46.714;17.322;2022-08-25T11:48:38;100347.28;;;27.16;55.91
64521;BME280;50896;46.714;17.322;2022-08-25T11:51:30;100352.78;;;27.06;56.86
64521;BME280;50896;46.714;17.322;2022-08-25T11:56:59;100356.03;;;27.08;56.09
64521;BME280;50896;46.714;17.322;2022-08-25T12:02:41;100347.03;;;26.97;57.80
64521;BME280;50896;46.714;17.322;2022-08-25T12:10:23;100339.13;;;26.80;55.60
64521;BME280;50896;46.714;17.322;2022-08-25T12:13:05;100336.94;;;26.72;55.59
64521;BME280;50896;46.714;17.322;2022-08-25T12:18:37;100330.63;;;26.66;57.53
64521;BME280;50896;46.714;17.322;2022-08-25T12:21:14;100323.28;;;26.61;57.27
64521;BME280;50896;46.714;17.322;2022-08-25T12:34:49;100326.00;;;26.46;55.72
64521;BME280;50896;46.714;17.322;2022-08-25T12:37:21;100318.09;;;26.39;55.74
64521;BME280;50896;46.714;17.322;2022-08-25T12:47:48;100312.34;;;26.36;57.27
64521;BME280;50896;46.714;17.322;2022-08-25T12:53:13;100319.72;;;26.35;57.09
64521;BME280;50896;46.714;17.322;2022-08-25T12:55:47;100309.09;;;26.39;56.73
64521;BME280;50896;46.714;17.322;2022-08-25T12:58:15;100304.19;;;26.41;57.70
64521;BME280;50896;46.714;17.322;2022-08-25T13:12:39;100290.81;;;26.65;58.46
64521;BME280;50896;46.714;17.322;2022-08-25T13:15:25;100295.47;;;26.65;62.07
64521;BME280;50896;46.714;17.322;2022-08-25T13:17:53;100292.22;;;26.57;59.32
64521;BME280;50896;46.714;17.322;2022-08-25T13:20:26;100282.66;;;26.50;58.73
64521;BME280;50896;46.714;17.322;2022-08-25T13:22:56;100286.47;;;26.43;59.37
64521;BME280;50896;46.714;17.322;2022-08-25T13:25:27;100283.47;;;26.40;58.86
64521;BME280;50896;46.714;17.322;2022-08-25T13:28:03;100283.47;;;26.40;59.18
64521;BME280;50896;46.714;17.322;2022-08-25T13:30:35;100279.66;;;26.46;58.03
64521;BME280;50896;46.714;17.322;2022-08-25T13:33:19;100269.28;;;26.48;58.36
64521;BME280;50896;46.714;17.322;2022-08-25T13:35:49;100263.03;;;26.58;56.89
64521;BME280;50896;46.714;17.322;2022-08-25T13:38:37;100267.69;;;26.57;57.18
64521;BME280;50896;46.714;17.322;2022-08-25T13:41:05;100266.03;;;26.61;57.84
64521;BME280;50896;46.714;17.322;2022-08-25T13:43:36;100262.25;;;26.78;56.19
64521;BME280;50896;46.714;17.322;2022-08-25T13:46:04;100259.16;;;27.21;56.14
64521;BME280;50896;46.714;17.322;2022-08-25T13:48:40;100266.94;;;27.69;54.66
64521;BME280;50896;46.714;17.322;2022-08-25T13:51:22;100262.94;;;27.25;54.10
64521;BME280;50896;46.714;17.322;2022-08-25T13:53:58;100258.84;;;27.27;53.06
64521;BME280;50896;46.714;17.322;2022-08-25T13:56:32;100255.28;;;27.32;53.12
64521;BME280;50896;46.714;17.322;2022-08-25T13:59:28;100256.13;;;27.33;54.18
64521;BME280;50896;46.714;17.322;2022-08-25T14:02:07;100264.47;;;28.17;52.33
64521;BME280;50896;46.714;17.322;2022-08-25T14:04:47;100258.94;;;30.45;47.24
64521;BME280;50896;46.714;17.322;2022-08-25T14:12:44;100250.75;;;27.83;51.77
64521;BME280;50896;46.714;17.322;2022-08-25T14:20:44;100257.22;;;27.26;52.77
64521;BME280;50896;46.714;17.322;2022-08-25T14:23:15;100254.53;;;27.16;54.03
64521;BME280;50896;46.714;17.322;2022-08-25T14:25:45;100258.91;;;27.07;54.73
64521;BME280;50896;46.714;17.322;2022-08-25T14:28:15;100252.38;;;27.03;52.92
64521;BME280;50896;46.714;17.322;2022-08-25T14:30:47;100252.69;;;26.96;54.46
64521;BME280;50896;46.714;17.322;2022-08-25T14:33:19;100249.66;;;26.87;54.73
64521;BME280;50896;46.714;17.322;2022-08-25T14:35:47;100248.03;;;26.97;54.15
64521;BME280;50896;46.714;17.322;2022-08-25T14:38:14;100241.75;;;26.96;55.03
64521;BME280;50896;46.714;17.322;2022-08-25T14:40:43;100240.41;;;26.93;55.47
64521;BME280;50896;46.714;17.322;2022-08-25T14:43:10;100242.56;;;26.97;54.67
64521;BME280;50896;46.714;17.322;2022-08-25T14:45:41;100243.13;;;26.93;53.92
64521;BME280;50896;46.714;17.322;2022-08-25T14:48:34;100238.75;;;26.98;53.78
64521;BME280;50896;46.714;17.322;2022-08-25T14:51:00;100237.13;;;26.97;53.96
64521;BME280;50896;46.714;17.322;2022-08-25T14:53:27;100238.75;;;26.92;54.33
64521;BME280;50896;46.714;17.322;2022-08-25T14:55:54;100239.03;;;26.91;55.15
64521;BME280;50896;46.714;17.322;2022-08-25T14:58:25;100231.13;;;26.89;54.71
64521;BME280;50896;46.714;17.322;2022-08-25T15:00:52;100230.84;;;26.86;55.17
64521;BME280;50896;46.714;17.322;2022-08-25T15:03:28;100227.03;;;26.87;54.79
64521;BME280;50896;46.714;17.322;2022-08-25T15:05:59;100228.41;;;26.89;53.55